createdAt,value
2019-05-12T00:01:35.107Z,10.40
2019-05-12T00:04:01.793Z,10.40
2019-05-12T00:06:28.624Z,10.40
2019-05-12T00:08:57.849Z,10.40
2019-05-12T00:11:24.425Z,10.40
2019-05-12T00:13:51.023Z,10.30
2019-05-12T00:16:17.801Z,10.30
2019-05-12T00:18:44.444Z,10.30
2019-05-12T00:21:11.067Z,10.30
2019-05-12T00:23:58.137Z,10.30
2019-05-12T00:26:24.692Z,10.30
2019-05-12T00:28:51.644Z,10.30
2019-05-12T00:31:18.868Z,10.20
2019-05-12T00:33:47.582Z,10.30
2019-05-12T00:36:14.182Z,10.30
2019-05-12T00:38:40.842Z,10.20
2019-05-12T00:41:08.746Z,10.30
2019-05-12T00:43:38.111Z,10.30
2019-05-12T00:46:04.676Z,10.20
2019-05-12T00:48:31.628Z,10.20
2019-05-12T00:50:58.438Z,10.30
2019-05-12T00:53:37.227Z,10.30
2019-05-12T00:55:54.269Z,10.20
2019-05-12T00:58:20.844Z,10.20
2019-05-12T01:00:48.285Z,10.10
2019-05-12T01:03:15.176Z,10.20
2019-05-12T01:05:41.806Z,10.20
2019-05-12T01:08:09.483Z,10.20
2019-05-12T01:10:39.027Z,10.20
2019-05-12T01:13:05.411Z,10.10
2019-05-12T01:15:32.121Z,10.10
2019-05-12T01:17:58.952Z,10.10
2019-05-12T01:20:28.020Z,10.10
2019-05-12T01:22:54.164Z,10.10
2019-05-12T01:25:20.798Z,10.10
2019-05-12T01:27:48.324Z,10.10
2019-05-12T01:30:17.922Z,10.10
2019-05-12T01:32:44.473Z,10.10
2019-05-12T01:35:11.527Z,10.00
2019-05-12T01:37:38.564Z,10.00
2019-05-12T01:40:08.829Z,10.10
2019-05-12T01:42:35.252Z,10.10
2019-05-12T01:45:01.845Z,10.00
2019-05-12T01:47:29.091Z,10.00
2019-05-12T01:49:57.961Z,10.00
2019-05-12T01:52:24.316Z,10.00
2019-05-12T01:54:50.921Z,10.00
2019-05-12T01:57:18.833Z,10.00
2019-05-12T01:59:45.545Z,10.00
2019-05-12T02:02:12.279Z,9.90
2019-05-12T02:04:58.769Z,9.90
2019-05-12T02:07:27.928Z,9.80
2019-05-12T02:09:54.572Z,9.90
2019-05-12T02:12:21.727Z,9.90
2019-05-12T02:14:48.606Z,9.90
2019-05-12T02:17:17.824Z,9.90
2019-05-12T02:19:44.036Z,9.80
2019-05-12T02:22:10.900Z,9.90
2019-05-12T02:24:39.072Z,9.90
2019-05-12T02:27:28.294Z,9.90
2019-05-12T02:29:54.236Z,9.80
2019-05-12T02:32:23.753Z,9.80
2019-05-12T02:34:49.368Z,9.90
2019-05-12T02:37:16.207Z,9.90
2019-05-12T02:39:44.923Z,9.80
2019-05-12T02:42:11.410Z,9.80
2019-05-12T02:44:38.276Z,9.80
2019-05-12T02:47:05.363Z,9.80
2019-05-12T02:49:34.893Z,9.80
2019-05-12T02:52:00.981Z,9.80
2019-05-12T02:54:49.404Z,9.70
2019-05-12T02:56:56.845Z,9.70
2019-05-12T02:59:25.340Z,9.70
2019-05-12T03:01:55.045Z,9.70
2019-05-12T03:04:24.858Z,9.70
2019-05-12T03:06:54.933Z,9.70
2019-05-12T03:09:24.433Z,9.70
2019-05-12T03:11:50.841Z,9.70
2019-05-12T03:14:17.451Z,9.70
2019-05-12T03:16:45.381Z,9.70
2019-05-12T03:19:14.985Z,9.70
2019-05-12T03:21:44.051Z,9.70
2019-05-12T03:24:09.252Z,9.70
2019-05-12T03:26:35.874Z,9.70
2019-05-12T03:29:05.767Z,9.70
2019-05-12T03:31:33.802Z,9.70
2019-05-12T03:34:00.750Z,9.70
2019-05-12T03:36:34.730Z,9.70
2019-05-12T03:38:56.234Z,9.60
2019-05-12T03:41:25.112Z,9.60
2019-05-12T03:43:54.806Z,9.70
2019-05-12T03:46:19.897Z,9.60
2019-05-12T03:48:46.512Z,9.70
2019-05-12T03:51:15.431Z,9.70
2019-05-12T03:53:45.115Z,9.60
2019-05-12T03:56:10.222Z,9.60
2019-05-12T03:58:36.926Z,9.70
2019-05-12T04:01:04.695Z,9.70
2019-05-12T04:03:34.306Z,9.70
2019-05-12T04:06:00.173Z,9.70
2019-05-12T04:08:26.921Z,9.70
2019-05-12T04:10:54.724Z,9.70
2019-05-12T04:13:21.724Z,9.70
2019-05-12T04:15:48.368Z,9.70
2019-05-12T04:18:15.839Z,9.70
2019-05-12T04:20:45.203Z,9.70
2019-05-12T04:23:14.989Z,9.80
2019-05-12T04:25:54.843Z,9.80
2019-05-12T04:28:09.637Z,9.80
2019-05-12T04:30:36.397Z,9.80
2019-05-12T04:33:04.722Z,9.80
2019-05-12T04:35:34.946Z,9.80
2019-05-12T04:38:04.091Z,9.80
2019-05-12T04:40:29.296Z,9.90
2019-05-12T04:42:55.939Z,9.70
2019-05-12T04:45:25.257Z,9.70
2019-05-12T04:47:51.226Z,9.70
2019-05-12T04:50:17.839Z,9.70
2019-05-12T04:52:44.825Z,9.70
2019-05-12T04:55:14.717Z,9.70
2019-05-12T04:57:40.136Z,9.70
2019-05-12T05:00:06.924Z,9.80
2019-05-12T05:02:36.475Z,9.90
2019-05-12T05:05:05.130Z,10.00
2019-05-12T05:07:30.841Z,10.10
2019-05-12T05:09:57.833Z,10.10
2019-05-12T05:12:24.473Z,10.20
2019-05-12T05:14:51.052Z,10.20
2019-05-12T05:17:17.933Z,10.10
2019-05-12T05:19:44.554Z,10.00
2019-05-12T05:22:13.576Z,10.00
2019-05-12T05:24:39.734Z,9.90
2019-05-12T05:27:06.692Z,10.00
2019-05-12T05:29:35.288Z,10.10
2019-05-12T05:32:03.519Z,10.10
2019-05-12T05:34:30.307Z,10.00
2019-05-12T05:37:01.384Z,10.20
2019-05-12T05:39:25.435Z,10.20
2019-05-12T05:41:53.793Z,10.10
2019-05-12T05:44:20.565Z,10.20
2019-05-12T05:46:50.027Z,10.20
2019-05-12T05:49:15.921Z,10.10
2019-05-12T05:51:46.746Z,10.20
2019-05-12T05:54:11.147Z,10.20
2019-05-12T05:56:42.770Z,10.30
2019-05-12T05:59:06.531Z,10.40
2019-05-12T06:01:34.920Z,10.40
2019-05-12T06:04:04.491Z,10.50
2019-05-12T06:06:30.328Z,10.40
2019-05-12T06:08:59.818Z,10.60
2019-05-12T06:11:28.577Z,10.60
2019-05-12T06:13:55.642Z,10.70
2019-05-12T06:16:25.120Z,10.90
2019-05-12T06:18:50.786Z,10.90
2019-05-12T06:21:17.868Z,11.00
2019-05-12T06:23:44.534Z,11.60
2019-05-12T06:26:13.816Z,11.60
2019-05-12T06:28:41.297Z,11.70
2019-05-12T06:31:08.341Z,11.80
2019-05-12T06:33:36.301Z,12.10
2019-05-12T06:36:07.057Z,12.70
2019-05-12T06:38:37.222Z,13.10
2019-05-12T06:41:03.616Z,13.50
2019-05-12T06:43:37.403Z,14.30
2019-05-12T06:45:58.896Z,14.70
2019-05-12T06:48:30.046Z,14.50
2019-05-12T06:50:53.984Z,15.00
2019-05-12T06:53:29.026Z,15.30
2019-05-12T06:55:49.119Z,15.90
2019-05-12T06:58:26.072Z,15.70
2019-05-12T07:00:44.349Z,15.70
2019-05-12T07:03:10.961Z,15.40
2019-05-12T07:05:38.980Z,15.00
2019-05-12T07:08:06.083Z,15.00
2019-05-12T07:10:39.436Z,15.00
2019-05-12T07:13:05.324Z,15.20
2019-05-12T07:15:35.736Z,15.60
2019-05-12T07:18:04.290Z,16.10
2019-05-12T07:20:37.213Z,16.90
2019-05-12T07:22:59.621Z,17.30
2019-05-12T07:25:31.157Z,17.60
2019-05-12T07:28:00.258Z,18.40
2019-05-12T07:30:26.761Z,18.50
2019-05-12T07:32:59.389Z,18.70
2019-05-12T07:35:24.669Z,18.50
2019-05-12T07:37:58.453Z,19.30
2019-05-12T07:40:30.148Z,18.50
2019-05-12T07:42:57.744Z,18.90
2019-05-12T07:45:25.326Z,18.10
2019-05-12T07:47:54.112Z,18.60
2019-05-12T07:50:24.849Z,18.70
2019-05-12T07:52:49.809Z,19.80
2019-05-12T07:55:16.757Z,20.60
2019-05-12T07:57:52.877Z,21.00
2019-05-12T08:00:21.130Z,20.50
2019-05-12T08:02:44.371Z,20.20
2019-05-12T08:05:19.558Z,20.00
2019-05-12T08:07:39.965Z,19.60
2019-05-12T08:10:15.858Z,20.30
2019-05-12T08:12:36.260Z,20.60
2019-05-12T08:15:07.774Z,20.80
2019-05-12T08:17:33.674Z,21.30
2019-05-12T08:20:20.158Z,21.30
2019-05-12T08:22:46.792Z,21.10
2019-05-12T08:25:13.687Z,21.50
2019-05-12T08:27:45.259Z,22.00
2019-05-12T08:30:09.390Z,21.90
2019-05-12T08:32:36.116Z,22.40
2019-05-12T08:35:05.056Z,21.40
2019-05-12T08:37:33.333Z,20.80
2019-05-12T08:40:07.356Z,21.10
2019-05-12T08:42:28.741Z,22.00
2019-05-12T08:44:55.373Z,22.10
2019-05-12T08:47:23.825Z,21.70
2019-05-12T08:49:56.055Z,21.60
2019-05-12T08:52:19.049Z,21.60
2019-05-12T08:54:49.373Z,21.40
2019-05-12T08:57:14.450Z,21.30
2019-05-12T08:59:41.132Z,22.10
2019-05-12T09:02:10.762Z,22.40
2019-05-12T09:04:36.387Z,21.70
2019-05-12T09:07:04.351Z,21.30
2019-05-12T09:09:33.623Z,22.00
2019-05-12T09:12:00.291Z,21.90
2019-05-12T09:14:26.903Z,21.80
2019-05-12T09:17:02.015Z,21.60
2019-05-12T09:19:24.941Z,21.10
2019-05-12T09:21:50.548Z,20.80
2019-05-12T09:24:21.669Z,20.20
2019-05-12T09:26:45.801Z,20.70
2019-05-12T09:29:13.958Z,21.10
2019-05-12T09:31:40.847Z,21.60
2019-05-12T09:34:11.649Z,22.20
2019-05-12T09:36:35.966Z,22.50
2019-05-12T09:39:05.972Z,22.60
2019-05-12T09:41:34.291Z,22.90
2019-05-12T09:44:01.763Z,23.30
2019-05-12T09:46:34.377Z,22.90
2019-05-12T09:48:58.389Z,22.20
2019-05-12T09:51:25.028Z,22.80
2019-05-12T09:53:55.184Z,23.10
2019-05-12T09:56:20.188Z,23.20
2019-05-12T09:58:58.196Z,22.90
2019-05-12T10:01:15.356Z,22.70
2019-05-12T10:03:43.744Z,22.70
2019-05-12T10:06:11.389Z,22.90
2019-05-12T10:08:39.081Z,23.30
2019-05-12T10:11:10.180Z,23.50
2019-05-12T10:13:34.292Z,23.40
2019-05-12T10:16:07.016Z,23.30
2019-05-12T10:18:29.399Z,23.60
2019-05-12T10:20:55.989Z,24.40
2019-05-12T10:23:26.666Z,24.40
2019-05-12T10:25:53.646Z,24.60
2019-05-12T10:28:19.868Z,24.50
2019-05-12T10:30:47.449Z,23.10
2019-05-12T10:33:15.333Z,23.20
2019-05-12T10:35:43.839Z,23.60
2019-05-12T10:38:10.943Z,24.70
2019-05-12T10:40:37.770Z,24.80
2019-05-12T10:43:04.821Z,24.50
2019-05-12T10:45:32.607Z,24.10
2019-05-12T10:47:59.199Z,24.10
2019-05-12T10:50:25.794Z,23.90
2019-05-12T10:52:53.618Z,23.90
2019-05-12T10:55:20.361Z,24.10
2019-05-12T10:57:47.359Z,24.30
2019-05-12T11:00:19.753Z,23.90
2019-05-12T11:02:43.983Z,23.90
2019-05-12T11:05:12.457Z,24.20
2019-05-12T11:07:39.727Z,24.60
2019-05-12T11:10:15.639Z,24.60
2019-05-12T11:12:36.418Z,24.10
2019-05-12T11:15:06.781Z,24.60
2019-05-12T11:17:53.361Z,23.70
2019-05-12T11:20:20.554Z,23.70
2019-05-12T11:22:47.165Z,23.30
2019-05-12T11:25:14.493Z,23.90
2019-05-12T11:27:43.672Z,25.10
2019-05-12T11:30:10.147Z,24.80
2019-05-12T11:32:38.035Z,24.20
2019-05-12T11:35:05.172Z,25.40
2019-05-12T11:37:33.835Z,25.70
2019-05-12T11:40:00.752Z,25.70
2019-05-12T11:42:27.339Z,25.60
2019-05-12T11:44:53.958Z,24.90
2019-05-12T11:47:24.132Z,24.90
2019-05-12T11:49:49.113Z,25.10
2019-05-12T11:52:19.092Z,24.70
2019-05-12T11:54:47.141Z,24.30
2019-05-12T11:57:13.432Z,23.70
2019-05-12T11:59:43.426Z,23.70
2019-05-12T12:02:20.093Z,24.40
2019-05-12T12:04:45.639Z,23.90
2019-05-12T12:07:16.576Z,24.50
2019-05-12T12:09:43.891Z,24.40
2019-05-12T12:12:13.064Z,24.60
2019-05-12T12:14:40.339Z,24.30
2019-05-12T12:17:09.486Z,24.30
2019-05-12T12:19:43.655Z,24.10
2019-05-12T12:22:07.264Z,24.70
2019-05-12T12:24:34.032Z,25.00
2019-05-12T12:27:00.891Z,24.80
2019-05-12T12:29:27.507Z,24.90
2019-05-12T12:31:55.257Z,25.30
2019-05-12T12:34:25.362Z,24.60
2019-05-12T12:36:50.360Z,24.40
2019-05-12T12:39:17.022Z,24.60
2019-05-12T12:41:55.305Z,24.90
2019-05-12T12:44:13.622Z,24.70
2019-05-12T12:46:40.731Z,25.10
2019-05-12T12:49:10.414Z,25.60
2019-05-12T12:51:35.949Z,25.00
2019-05-12T12:54:03.273Z,25.30
2019-05-12T12:56:30.412Z,25.80
2019-05-12T12:59:01.861Z,25.20
2019-05-12T13:01:28.517Z,25.30
2019-05-12T13:03:59.411Z,25.10
2019-05-12T13:06:23.859Z,25.10
2019-05-12T13:08:50.738Z,24.50
2019-05-12T13:11:32.183Z,25.00
2019-05-12T13:13:46.411Z,25.10
2019-05-12T13:16:13.336Z,24.70
2019-05-12T13:18:40.071Z,25.30
2019-05-12T13:21:07.851Z,25.20
2019-05-12T13:23:40.471Z,24.90
2019-05-12T13:26:04.426Z,24.70
2019-05-12T13:28:31.177Z,24.90
2019-05-12T13:31:08.158Z,25.10
2019-05-12T13:33:26.327Z,24.80
2019-05-12T13:35:55.649Z,24.90
2019-05-12T13:38:23.777Z,25.10
2019-05-12T13:40:50.886Z,24.60
2019-05-12T13:43:19.482Z,24.70
2019-05-12T13:45:48.326Z,24.00
2019-05-12T13:48:19.684Z,24.00
2019-05-12T13:50:43.607Z,23.00
2019-05-12T13:53:10.684Z,23.10
2019-05-12T13:55:39.305Z,23.00
2019-05-12T13:58:07.938Z,22.50
2019-05-12T14:00:41.464Z,22.40
2019-05-12T14:03:09.468Z,22.60
2019-05-12T14:05:36.237Z,23.00
2019-05-12T14:08:03.884Z,23.40
2019-05-12T14:10:32.612Z,23.40
2019-05-12T14:13:03.378Z,23.60
2019-05-12T14:15:29.783Z,23.90
2019-05-12T14:17:56.744Z,24.10
2019-05-12T14:20:24.078Z,23.60
2019-05-12T14:22:53.237Z,23.00
2019-05-12T14:25:20.908Z,22.80
2019-05-12T14:27:48.206Z,22.50
2019-05-12T14:30:15.107Z,23.00
2019-05-12T14:32:43.777Z,23.30
2019-05-12T14:35:10.540Z,22.90
2019-05-12T14:37:40.391Z,22.50
2019-05-12T14:40:06.046Z,23.00
2019-05-12T14:42:39.379Z,22.60
2019-05-12T14:45:01.194Z,22.70
2019-05-12T14:47:30.230Z,21.60
2019-05-12T14:49:58.327Z,21.00
2019-05-12T14:52:26.010Z,21.40
2019-05-12T14:54:54.977Z,21.90
2019-05-12T14:57:24.228Z,21.80
2019-05-12T14:59:50.608Z,22.10
2019-05-12T15:02:19.375Z,22.40
2019-05-12T15:04:46.366Z,22.80
2019-05-12T15:07:15.264Z,23.00
2019-05-12T15:09:42.110Z,23.50
2019-05-12T15:12:08.977Z,23.20
2019-05-12T15:14:38.016Z,23.90
2019-05-12T15:17:04.076Z,24.00
2019-05-12T15:19:33.265Z,23.60
2019-05-12T15:22:01.463Z,23.50
2019-05-12T15:24:28.398Z,23.20
2019-05-12T15:26:59.047Z,23.30
2019-05-12T15:29:23.712Z,23.20
2019-05-12T15:31:56.347Z,23.40
2019-05-12T15:34:23.458Z,23.10
2019-05-12T15:36:52.104Z,22.40
2019-05-12T15:39:18.313Z,22.00
2019-05-12T15:41:45.136Z,21.70
2019-05-12T15:44:14.581Z,21.50
2019-05-12T15:46:43.747Z,20.40
2019-05-12T15:49:09.737Z,19.80
2019-05-12T15:51:39.072Z,20.00
2019-05-12T15:54:11.278Z,20.70
2019-05-12T15:56:33.699Z,21.30
2019-05-12T15:59:02.554Z,20.90
2019-05-12T16:01:28.968Z,21.00
2019-05-12T16:03:55.876Z,20.40
2019-05-12T16:06:22.599Z,20.00
2019-05-12T16:08:49.332Z,19.60
2019-05-12T16:11:16.316Z,19.00
2019-05-12T16:13:44.939Z,18.60
2019-05-12T16:16:13.995Z,18.30
2019-05-12T16:18:40.541Z,17.80
2019-05-12T16:21:09.535Z,17.40
2019-05-12T16:23:36.436Z,17.30
2019-05-12T16:26:10.247Z,17.10
2019-05-12T16:28:33.877Z,17.10
2019-05-12T16:31:05.009Z,17.10
2019-05-12T16:33:29.499Z,17.10
2019-05-12T16:36:00.110Z,16.90
2019-05-12T16:38:27.161Z,16.90
2019-05-12T16:40:54.011Z,16.80
2019-05-12T16:43:20.708Z,16.70
2019-05-12T16:45:47.341Z,16.60
2019-05-12T16:48:28.650Z,16.50
2019-05-12T16:50:43.771Z,16.40
2019-05-12T16:53:13.278Z,16.30
2019-05-12T16:55:46.500Z,16.10
2019-05-12T16:58:08.072Z,16.20
2019-05-12T17:00:39.703Z,16.10
2019-05-12T17:03:03.920Z,16.00
2019-05-12T17:05:33.390Z,16.00
2019-05-12T17:07:59.645Z,16.00
2019-05-12T17:10:26.325Z,16.00
2019-05-12T17:12:54.359Z,15.90
2019-05-12T17:15:23.420Z,15.70
2019-05-12T17:17:50.767Z,15.60
2019-05-12T17:20:18.521Z,15.70
2019-05-12T17:22:54.113Z,15.60
2019-05-12T17:25:15.403Z,15.60
2019-05-12T17:27:44.489Z,15.50
2019-05-12T17:30:13.377Z,15.50
2019-05-12T17:32:54.834Z,15.50
2019-05-12T17:35:10.232Z,15.50
2019-05-12T17:37:41.303Z,15.30
2019-05-12T17:40:09.298Z,15.20
2019-05-12T17:42:34.733Z,15.40
2019-05-12T17:45:03.764Z,15.60
2019-05-12T17:47:31.885Z,15.50
2019-05-12T17:50:00.542Z,15.30
2019-05-12T17:52:29.116Z,15.10
2019-05-12T17:55:04.434Z,15.00
2019-05-12T17:57:24.603Z,14.90
2019-05-12T17:59:51.511Z,14.90
2019-05-12T18:02:18.368Z,14.80
2019-05-12T18:04:45.016Z,14.80
2019-05-12T18:07:14.502Z,14.80
2019-05-12T18:09:40.229Z,14.80
2019-05-12T18:12:06.993Z,14.70
2019-05-12T18:14:45.002Z,14.60
2019-05-12T18:17:08.305Z,14.60
2019-05-12T18:19:30.851Z,14.50
2019-05-12T18:22:03.432Z,14.50
2019-05-12T18:24:26.251Z,14.40
2019-05-12T18:26:56.657Z,14.40
2019-05-12T18:29:23.629Z,14.20
2019-05-12T18:31:52.787Z,14.10
2019-05-12T18:34:19.992Z,14.00
2019-05-12T18:36:49.075Z,13.90
2019-05-12T18:39:15.741Z,13.80
2019-05-12T18:41:43.922Z,13.80
2019-05-12T18:44:18.175Z,13.60
2019-05-12T18:46:45.158Z,13.60
2019-05-12T18:49:12.375Z,13.50
2019-05-12T18:51:36.653Z,13.50
2019-05-12T18:54:03.954Z,13.40
2019-05-12T18:56:33.665Z,13.30
2019-05-12T18:59:05.139Z,13.20
2019-05-12T19:01:29.136Z,13.20
2019-05-12T19:03:55.784Z,13.20
2019-05-12T19:06:23.383Z,13.10
2019-05-12T19:08:50.206Z,13.10
2019-05-12T19:11:22.541Z,13.00
2019-05-12T19:13:51.763Z,12.90
2019-05-12T19:16:14.491Z,12.90
2019-05-12T19:18:41.287Z,12.90
2019-05-12T19:21:10.164Z,12.80
2019-05-12T19:23:37.767Z,12.70
2019-05-12T19:26:04.681Z,12.70
2019-05-12T19:28:31.429Z,12.60
2019-05-12T19:31:00.792Z,12.60
2019-05-12T19:33:26.909Z,12.50
2019-05-12T19:35:59.738Z,12.40
2019-05-12T19:38:23.964Z,12.40
2019-05-12T19:40:58.731Z,12.40
2019-05-12T19:43:20.059Z,12.40
2019-05-12T19:45:46.783Z,12.30
2019-05-12T19:48:23.783Z,12.30
2019-05-12T19:50:44.400Z,12.30
2019-05-12T19:53:10.752Z,12.20
2019-05-12T19:55:37.415Z,12.20
2019-05-12T19:58:10.952Z,12.10
2019-05-12T20:00:33.569Z,12.00
2019-05-12T20:03:00.492Z,11.90
2019-05-12T20:05:27.348Z,12.00
2019-05-12T20:07:54.076Z,12.10
2019-05-12T20:10:20.745Z,12.00
2019-05-12T20:12:48.904Z,11.80
2019-05-12T20:15:16.191Z,11.80
2019-05-12T20:17:44.740Z,11.80
2019-05-12T20:20:13.698Z,11.80
2019-05-12T20:22:40.528Z,11.90
2019-05-12T20:25:07.307Z,11.90
2019-05-12T20:27:34.549Z,11.80
2019-05-12T20:30:06.276Z,11.80
2019-05-12T20:32:30.123Z,11.80
2019-05-12T20:34:57.215Z,11.80
2019-05-12T20:37:24.120Z,11.70
2019-05-12T20:40:00.209Z,11.70
2019-05-12T20:42:23.523Z,11.70
2019-05-12T20:44:51.113Z,11.50
2019-05-12T20:47:18.507Z,11.50
2019-05-12T20:49:51.169Z,11.50
2019-05-12T20:52:14.457Z,11.60
2019-05-12T20:54:43.953Z,11.50
2019-05-12T20:57:10.033Z,11.60
2019-05-12T20:59:36.650Z,11.60
2019-05-12T21:02:03.729Z,11.50
2019-05-12T21:04:34.479Z,11.50
2019-05-12T21:07:00.116Z,11.40
2019-05-12T21:09:26.719Z,11.30
2019-05-12T21:11:54.654Z,11.30
2019-05-12T21:14:23.891Z,11.10
2019-05-12T21:16:50.877Z,11.10
2019-05-12T21:19:17.797Z,11.00
2019-05-12T21:21:44.615Z,11.00
2019-05-12T21:24:13.931Z,11.00
2019-05-12T21:26:40.393Z,11.00
2019-05-12T21:29:07.078Z,11.00
2019-05-12T21:31:33.842Z,10.90
2019-05-12T21:34:00.513Z,11.00
2019-05-12T21:36:29.535Z,10.90
2019-05-12T21:38:59.427Z,10.80
2019-05-12T21:41:24.887Z,10.80
2019-05-12T21:43:51.585Z,10.70
2019-05-12T21:46:18.245Z,10.70
2019-05-12T21:48:45.085Z,10.70
2019-05-12T21:51:16.530Z,10.60
2019-05-12T21:53:40.559Z,10.50
2019-05-12T21:56:07.688Z,10.50
2019-05-12T21:58:34.309Z,10.50
2019-05-12T22:01:05.135Z,10.40
2019-05-12T22:03:33.310Z,10.50
2019-05-12T22:06:06.436Z,10.50
2019-05-12T22:08:29.769Z,10.50
2019-05-12T22:11:00.944Z,10.40
2019-05-12T22:13:25.824Z,10.40
2019-05-12T22:15:56.965Z,10.30
2019-05-12T22:18:21.100Z,10.30
2019-05-12T22:20:52.217Z,10.30
2019-05-12T22:23:24.552Z,10.30
2019-05-12T22:25:57.786Z,10.30
2019-05-12T22:28:19.722Z,10.30
2019-05-12T22:30:46.431Z,10.30
2019-05-12T22:33:14.221Z,10.30
2019-05-12T22:35:41.090Z,10.40
2019-05-12T22:38:15.076Z,10.40
2019-05-12T22:40:36.224Z,10.30
2019-05-12T22:43:04.452Z,10.30
2019-05-12T22:45:36.187Z,10.10
2019-05-12T22:48:00.099Z,10.00
2019-05-12T22:50:27.196Z,9.90
2019-05-12T22:52:55.428Z,9.90
2019-05-12T22:55:27.836Z,9.90
2019-05-12T22:57:50.666Z,9.80
2019-05-12T23:00:19.423Z,9.80
2019-05-12T23:02:46.740Z,9.80
2019-05-12T23:05:16.808Z,9.80
2019-05-12T23:07:43.945Z,9.70
2019-05-12T23:10:14.232Z,9.70
2019-05-12T23:12:41.108Z,9.60
2019-05-12T23:15:08.239Z,9.50
2019-05-12T23:17:39.013Z,9.40
2019-05-12T23:20:04.768Z,9.60
2019-05-12T23:22:35.220Z,9.70
2019-05-12T23:25:04.021Z,9.80
2019-05-12T23:27:32.878Z,9.70
2019-05-12T23:30:01.463Z,9.60
2019-05-12T23:32:28.288Z,9.70
2019-05-12T23:34:58.577Z,9.80
2019-05-12T23:37:24.512Z,9.90
2019-05-12T23:39:53.757Z,10.00
2019-05-12T23:42:20.327Z,10.00
2019-05-12T23:44:46.977Z,9.90
2019-05-12T23:47:13.977Z,9.90
2019-05-12T23:49:40.577Z,9.90
2019-05-12T23:52:07.255Z,9.80
2019-05-12T23:54:34.470Z,9.80
2019-05-12T23:57:03.720Z,9.80
2019-05-12T23:59:29.971Z,9.70
